CheckWX is a tool to help pilots better visualize weather data.  It is not intended as a substitute for an official pre-flight weather briefing.

19:55:55 UTC

MUCF METAR
Jaime Gonzalez Airport
Cienfuegos, Cuba
Current

1 hour ago

MUCF 221851Z VRB03KT 9999 SCT025 30/17 Q1015
Observed
Nov-22 @ 18:51 UTC
Wind
  • Variable at 3 KTS
Visibility
10,000+ meters
Flight Rules
VFR
Cloud Levels
  • Scattered at 2,500' AGL
Temperature
30°C / 86°F
Dewpoint
17°C / 63°F
Heat Index
31°C / 87°F
Humidity
46%
Altimeter
29.97" Hg
Pressure
1014.92 hPa
Previous

2 hours ago

MUCF 221750Z 04004KT 360V100 9999 SCT025 28/17 Q1016
Observed
Nov-22 @ 17:50 UTC
Wind
  • 040° at 4 KTS
Visibility
10,000+ meters
Flight Rules
VFR
Cloud Levels
  • Scattered at 2,500' AGL
Temperature
28°C / 82°F
Dewpoint
17°C / 63°F
Heat Index
28°C / 83°F
Humidity
51%
Altimeter
30" Hg
Pressure
1015.92 hPa
Previous

3 hours ago

MUCF 221650Z 07006KT 020V120 9999 SCT025 29/19 Q1017
Observed
Nov-22 @ 16:50 UTC
Wind
  • 070° at 6 KTS
Visibility
10,000+ meters
Flight Rules
VFR
Cloud Levels
  • Scattered at 2,500' AGL
Temperature
29°C / 84°F
Dewpoint
19°C / 66°F
Heat Index
30°C / 86°F
Humidity
55%
Altimeter
30.03" Hg
Pressure
1016.92 hPa